createdAt,value
2019-03-16T00:01:28.956Z,14.57
2019-03-16T00:04:00.589Z,16.77
2019-03-16T00:06:31.695Z,11.93
2019-03-16T00:09:03.037Z,12.57
2019-03-16T00:11:34.351Z,12.07
2019-03-16T00:14:05.560Z,10.93
2019-03-16T00:16:37.028Z,10.10
2019-03-16T00:19:08.120Z,13.90
2019-03-16T00:21:39.663Z,14.23
2019-03-16T00:24:12.730Z,9.23
2019-03-16T00:26:45.719Z,14.60
2019-03-16T00:29:16.970Z,13.17
2019-03-16T00:31:48.030Z,13.33
2019-03-16T00:34:21.104Z,8.33
2019-03-16T00:36:52.581Z,15.37
2019-03-16T00:39:24.212Z,12.87
2019-03-16T00:41:58.359Z,11.77
2019-03-16T00:44:29.767Z,11.33
2019-03-16T00:47:01.080Z,19.83
2019-03-16T00:49:32.489Z,8.53
2019-03-16T00:52:05.685Z,17.43
2019-03-16T00:54:37.052Z,12.73
2019-03-16T00:57:08.424Z,14.80
2019-03-16T00:59:41.604Z,17.67
2019-03-16T01:02:26.093Z,15.33
2019-03-16T01:04:45.904Z,6.67
2019-03-16T01:07:18.811Z,11.90
2019-03-16T01:09:50.404Z,15.43
2019-03-16T01:12:21.680Z,14.30
2019-03-16T01:14:53.174Z,14.63
2019-03-16T01:17:26.615Z,11.73
2019-03-16T01:19:57.861Z,8.20
2019-03-16T01:22:29.044Z,15.73
2019-03-16T01:25:00.674Z,8.30
2019-03-16T01:27:31.978Z,13.17
2019-03-16T01:30:03.239Z,17.40
2019-03-16T01:32:40.628Z,11.87
2019-03-16T01:35:08.717Z,11.10
2019-03-16T01:37:39.982Z,14.23
2019-03-16T01:40:12.932Z,15.27
2019-03-16T01:42:45.568Z,10.43
2019-03-16T01:45:16.757Z,12.57
2019-03-16T01:47:48.219Z,16.27
2019-03-16T01:50:21.684Z,15.23
2019-03-16T01:52:52.746Z,11.20
2019-03-16T01:55:25.031Z,10.33
2019-03-16T01:57:57.718Z,16.80
2019-03-16T02:00:30.829Z,10.23
2019-03-16T02:03:02.033Z,14.80
2019-03-16T02:05:33.237Z,15.73
2019-03-16T02:08:08.136Z,13.53
2019-03-16T02:10:39.393Z,11.73
2019-03-16T02:13:10.664Z,13.50
2019-03-16T02:15:41.947Z,18.27
2019-03-16T02:18:13.474Z,17.30
2019-03-16T02:20:44.497Z,20.93
2019-03-16T02:23:15.644Z,13.27
2019-03-16T02:25:48.216Z,15.67
2019-03-16T02:28:19.579Z,19.17
2019-03-16T02:30:50.929Z,12.03
2019-03-16T02:33:22.141Z,20.50
2019-03-16T02:35:56.458Z,21.10
2019-03-16T02:38:28.980Z,11.03
2019-03-16T02:41:00.117Z,13.63
2019-03-16T02:43:31.260Z,18.27
2019-03-16T02:46:02.933Z,15.63
2019-03-16T02:48:34.129Z,12.97
2019-03-16T02:51:05.650Z,12.83
2019-03-16T02:53:36.671Z,8.20
2019-03-16T02:56:10.629Z,10.17
2019-03-16T02:58:44.493Z,15.17
2019-03-16T03:01:17.374Z,17.83
2019-03-16T03:03:48.743Z,11.67
2019-03-16T03:06:19.919Z,17.33
2019-03-16T03:08:51.645Z,12.50
2019-03-16T03:11:22.771Z,13.83
2019-03-16T03:13:54.035Z,10.20
2019-03-16T03:16:27.022Z,12.07
2019-03-16T03:18:58.170Z,13.47
2019-03-16T03:21:29.427Z,13.93
2019-03-16T03:24:00.950Z,10.63
2019-03-16T03:26:32.128Z,16.60
2019-03-16T03:29:03.824Z,15.07
2019-03-16T03:31:34.929Z,21.80
2019-03-16T03:34:06.186Z,13.90
2019-03-16T03:36:37.446Z,18.80
2019-03-16T03:39:10.671Z,13.60
2019-03-16T03:41:43.612Z,15.60
2019-03-16T03:44:14.663Z,9.20
2019-03-16T03:46:46.052Z,10.47
2019-03-16T03:49:20.023Z,19.43
2019-03-16T03:51:51.878Z,14.60
2019-03-16T03:54:24.564Z,26.57
2019-03-16T03:56:55.664Z,8.30
2019-03-16T03:59:26.927Z,8.10
2019-03-16T04:02:01.187Z,10.10
2019-03-16T04:04:32.981Z,11.40
2019-03-16T04:07:05.242Z,13.60
2019-03-16T04:09:37.484Z,12.10
2019-03-16T04:12:08.639Z,18.97
2019-03-16T04:14:39.844Z,11.00
2019-03-16T04:17:10.952Z,11.07
2019-03-16T04:19:42.087Z,6.63
2019-03-16T04:22:13.171Z,11.23
2019-03-16T04:24:46.033Z,15.63
2019-03-16T04:27:17.371Z,14.27
2019-03-16T04:29:48.606Z,9.73
2019-03-16T04:32:20.983Z,11.87
2019-03-16T04:34:52.240Z,19.73
2019-03-16T04:37:23.525Z,6.10
2019-03-16T04:39:54.758Z,15.03
2019-03-16T04:42:25.983Z,8.40
2019-03-16T04:44:57.231Z,9.70
2019-03-16T04:47:30.366Z,19.93
2019-03-16T04:50:01.812Z,15.97
2019-03-16T04:52:36.610Z,12.63
2019-03-16T04:55:13.628Z,14.27
2019-03-16T04:57:44.783Z,21.80
2019-03-16T05:00:16.324Z,14.90
2019-03-16T05:02:49.236Z,12.57
2019-03-16T05:05:20.537Z,15.97
2019-03-16T05:07:53.517Z,17.47
2019-03-16T05:10:26.589Z,12.47
2019-03-16T05:12:58.104Z,16.13
2019-03-16T05:15:29.314Z,7.37
2019-03-16T05:18:00.863Z,15.50
2019-03-16T05:20:32.052Z,21.40
2019-03-16T05:23:03.266Z,20.50
2019-03-16T05:25:34.733Z,15.17
2019-03-16T05:28:05.867Z,9.13
2019-03-16T05:30:39.983Z,15.13
2019-03-16T05:33:11.032Z,14.17
2019-03-16T05:35:42.278Z,12.87
2019-03-16T05:38:13.364Z,18.27
2019-03-16T05:40:44.675Z,12.87
2019-03-16T05:43:15.982Z,9.07
2019-03-16T05:45:50.554Z,26.17
2019-03-16T05:48:25.379Z,16.53
2019-03-16T05:50:58.783Z,14.60
2019-03-16T05:53:30.087Z,9.40
2019-03-16T05:56:04.555Z,18.37
2019-03-16T05:58:35.636Z,12.67
2019-03-16T06:01:06.848Z,13.57
2019-03-16T06:03:39.532Z,11.50
2019-03-16T06:06:11.036Z,17.07
2019-03-16T06:08:43.705Z,16.77
2019-03-16T06:11:14.948Z,13.20
2019-03-16T06:13:49.752Z,23.00
2019-03-16T06:16:22.327Z,9.57
2019-03-16T06:18:54.721Z,13.77
2019-03-16T06:21:25.742Z,11.43
2019-03-16T06:23:57.265Z,12.00
2019-03-16T06:26:28.552Z,16.30
2019-03-16T06:28:59.612Z,11.70
2019-03-16T06:31:32.214Z,8.40
2019-03-16T06:34:03.748Z,11.77
2019-03-16T06:36:35.150Z,11.80
2019-03-16T06:39:08.505Z,10.90
2019-03-16T06:41:39.635Z,12.90
2019-03-16T06:44:11.908Z,16.90
2019-03-16T06:46:44.544Z,12.43
2019-03-16T06:49:17.483Z,9.57
2019-03-16T06:51:50.505Z,11.03
2019-03-16T06:54:21.720Z,11.60
2019-03-16T06:56:52.807Z,9.90
2019-03-16T06:59:26.580Z,12.70
2019-03-16T07:01:57.736Z,11.07
2019-03-16T07:04:29.883Z,11.90
2019-03-16T07:07:01.424Z,5.50
2019-03-16T07:09:32.586Z,7.10
2019-03-16T07:12:04.155Z,11.57
2019-03-16T07:14:35.595Z,11.00
2019-03-16T07:17:07.416Z,7.13
2019-03-16T07:19:39.629Z,8.50
2019-03-16T07:22:11.113Z,4.17
2019-03-16T07:24:42.275Z,4.70
2019-03-16T07:27:25.586Z,6.73
2019-03-16T07:29:48.176Z,8.70
2019-03-16T07:32:19.564Z,5.73
2019-03-16T07:34:50.748Z,7.70
2019-03-16T07:37:23.798Z,6.80
2019-03-16T07:39:55.013Z,4.00
2019-03-16T07:42:26.399Z,9.73
2019-03-16T07:45:08.161Z,3.40
2019-03-16T07:47:34.222Z,6.63
2019-03-16T07:50:05.805Z,7.50
2019-03-16T07:52:37.019Z,3.30
2019-03-16T07:55:09.812Z,7.63
2019-03-16T07:57:44.501Z,4.33
2019-03-16T08:00:15.866Z,3.90
2019-03-16T08:02:47.366Z,2.50
2019-03-16T08:05:19.610Z,4.80
2019-03-16T08:07:52.339Z,5.60
2019-03-16T08:10:25.396Z,6.77
2019-03-16T08:12:57.259Z,4.30
2019-03-16T08:15:30.967Z,2.07
2019-03-16T08:18:07.693Z,3.13
2019-03-16T08:20:37.760Z,9.17
2019-03-16T08:23:08.809Z,2.63
2019-03-16T08:25:40.975Z,2.23
2019-03-16T08:28:12.062Z,3.27
2019-03-16T08:30:43.288Z,3.30
2019-03-16T08:33:14.886Z,7.30
2019-03-16T08:35:46.077Z,3.37
2019-03-16T08:38:20.196Z,6.43
2019-03-16T08:40:53.181Z,2.37
2019-03-16T08:43:25.352Z,6.83
2019-03-16T08:45:56.498Z,4.53
2019-03-16T08:48:28.064Z,5.03
2019-03-16T08:50:59.308Z,4.73
2019-03-16T08:53:30.350Z,8.90
2019-03-16T08:56:01.951Z,5.50
2019-03-16T08:58:34.194Z,5.43
2019-03-16T09:01:05.764Z,3.57
2019-03-16T09:03:43.629Z,8.93
2019-03-16T09:06:11.626Z,10.50
2019-03-16T09:08:43.621Z,9.03
2019-03-16T09:11:14.829Z,6.43
2019-03-16T09:13:47.901Z,5.90
2019-03-16T09:16:19.819Z,5.83
2019-03-16T09:18:53.586Z,7.40
2019-03-16T09:21:26.036Z,3.20
2019-03-16T09:23:57.343Z,2.83
2019-03-16T09:26:28.591Z,4.23
2019-03-16T09:29:00.460Z,8.07
2019-03-16T09:31:31.744Z,9.73
2019-03-16T09:34:04.160Z,3.83
2019-03-16T09:36:36.540Z,9.33
2019-03-16T09:39:09.524Z,8.30
2019-03-16T09:41:40.820Z,5.77
2019-03-16T09:44:12.065Z,10.33
2019-03-16T09:46:43.370Z,5.10
2019-03-16T09:49:15.818Z,5.50
2019-03-16T09:51:46.922Z,11.93
2019-03-16T09:54:18.055Z,7.53
2019-03-16T09:57:00.657Z,4.80
2019-03-16T09:59:23.417Z,6.30
2019-03-16T10:01:54.925Z,3.40
2019-03-16T10:04:26.409Z,7.10
2019-03-16T10:06:58.171Z,7.50
2019-03-16T10:09:30.033Z,10.33
2019-03-16T10:12:03.418Z,5.50
2019-03-16T10:14:37.135Z,7.43
2019-03-16T10:17:08.065Z,5.20
2019-03-16T10:19:39.245Z,3.80
2019-03-16T10:22:10.692Z,6.70
2019-03-16T10:24:42.114Z,4.23
2019-03-16T10:27:14.607Z,5.23
2019-03-16T10:29:48.131Z,8.10
2019-03-16T10:32:19.495Z,4.20
2019-03-16T10:34:50.761Z,4.10
2019-03-16T10:37:22.017Z,3.90
2019-03-16T10:39:53.223Z,2.97
2019-03-16T10:42:24.743Z,4.20
2019-03-16T10:44:55.860Z,5.47
2019-03-16T10:47:27.071Z,4.80
2019-03-16T10:49:59.315Z,2.50
2019-03-16T10:52:30.426Z,3.17
2019-03-16T10:55:01.552Z,3.60
2019-03-16T10:57:33.000Z,2.03
2019-03-16T11:00:05.621Z,2.67
2019-03-16T11:02:36.846Z,5.13
2019-03-16T11:05:09.213Z,5.80
2019-03-16T11:07:40.974Z,3.90
2019-03-16T11:10:13.135Z,2.93
2019-03-16T11:12:45.419Z,5.93
2019-03-16T11:15:16.790Z,3.90
2019-03-16T11:17:48.001Z,1.90
2019-03-16T11:20:19.660Z,2.53
2019-03-16T11:22:51.238Z,4.10
2019-03-16T11:25:22.440Z,5.33
2019-03-16T11:27:54.026Z,5.17
2019-03-16T11:30:25.218Z,2.97
2019-03-16T11:32:56.419Z,5.67
2019-03-16T11:35:28.719Z,9.20
2019-03-16T11:37:59.866Z,4.20
2019-03-16T11:40:31.499Z,6.10
2019-03-16T11:43:03.399Z,5.13
2019-03-16T11:45:36.456Z,7.87
2019-03-16T11:48:07.600Z,5.80
2019-03-16T11:50:38.923Z,5.03
2019-03-16T11:53:10.464Z,6.33
2019-03-16T11:55:45.648Z,6.83
2019-03-16T11:58:16.896Z,7.97
2019-03-16T12:00:49.433Z,6.00
2019-03-16T12:03:22.167Z,10.60
2019-03-16T12:05:53.413Z,15.30
2019-03-16T12:08:24.554Z,10.77
2019-03-16T12:10:55.805Z,10.67
2019-03-16T12:13:27.169Z,15.43
2019-03-16T12:15:58.352Z,11.07
2019-03-16T12:18:30.657Z,7.37
2019-03-16T12:21:02.344Z,8.73
2019-03-16T12:23:33.862Z,13.53
2019-03-16T12:26:07.498Z,11.43
2019-03-16T12:28:39.051Z,9.90
2019-03-16T12:31:10.336Z,12.90
2019-03-16T12:33:42.715Z,14.23
2019-03-16T12:36:14.358Z,11.67
2019-03-16T12:38:48.562Z,16.00
2019-03-16T12:41:22.435Z,14.60
2019-03-16T12:43:57.189Z,8.93
2019-03-16T12:46:32.499Z,15.03
2019-03-16T12:49:06.584Z,12.97
2019-03-16T12:51:40.350Z,9.60
2019-03-16T12:54:16.126Z,15.00
2019-03-16T12:56:50.171Z,18.00
2019-03-16T12:59:24.360Z,13.70
2019-03-16T13:01:58.323Z,11.60
2019-03-16T13:04:33.026Z,9.30
2019-03-16T13:07:07.432Z,13.30
2019-03-16T13:09:43.025Z,13.00
2019-03-16T13:12:16.984Z,14.90
2019-03-16T13:14:52.849Z,10.93
2019-03-16T13:17:29.804Z,11.40
2019-03-16T13:20:04.093Z,12.80
2019-03-16T13:22:38.250Z,13.30
2019-03-16T13:25:12.703Z,14.67
2019-03-16T13:27:47.559Z,10.37
2019-03-16T13:30:21.500Z,13.60
2019-03-16T13:32:58.598Z,11.83
2019-03-16T13:35:32.636Z,16.53
2019-03-16T13:38:09.367Z,12.47
2019-03-16T13:40:45.019Z,16.43
2019-03-16T13:43:18.987Z,11.60
2019-03-16T13:45:52.995Z,16.00
2019-03-16T13:48:26.718Z,10.83
2019-03-16T13:51:01.175Z,14.00
2019-03-16T13:53:34.892Z,9.97
2019-03-16T13:56:09.933Z,13.33
2019-03-16T13:58:45.155Z,11.60
2019-03-16T14:01:18.962Z,8.73
2019-03-16T14:03:53.613Z,10.20
2019-03-16T14:06:29.046Z,11.60
2019-03-16T14:09:03.426Z,10.20
2019-03-16T14:11:37.229Z,14.10
2019-03-16T14:14:11.450Z,9.93
2019-03-16T14:16:45.234Z,13.33
2019-03-16T14:19:19.499Z,13.90
2019-03-16T14:21:54.932Z,12.67
2019-03-16T14:24:30.438Z,11.67
2019-03-16T14:27:04.644Z,13.20
2019-03-16T14:29:38.755Z,12.57
2019-03-16T14:32:12.739Z,13.90
2019-03-16T14:34:47.878Z,11.50
2019-03-16T14:37:21.701Z,12.10
2019-03-16T14:39:55.762Z,12.97
2019-03-16T14:42:29.698Z,12.37
2019-03-16T14:45:03.311Z,10.57
2019-03-16T14:47:36.969Z,11.50
2019-03-16T14:50:16.472Z,9.40
2019-03-16T14:52:53.664Z,6.87
2019-03-16T14:55:29.290Z,6.60
2019-03-16T14:58:04.135Z,5.97
2019-03-16T15:00:39.436Z,4.70
2019-03-16T15:03:13.621Z,7.90
2019-03-16T15:05:48.013Z,6.67
2019-03-16T15:08:24.881Z,5.80
2019-03-16T15:10:58.681Z,5.70
2019-03-16T15:13:32.649Z,8.67
2019-03-16T15:16:06.471Z,9.63
2019-03-16T15:18:40.390Z,7.30
2019-03-16T15:21:14.109Z,7.53
2019-03-16T15:23:48.000Z,7.00
2019-03-16T15:26:22.797Z,12.90
2019-03-16T15:28:57.600Z,6.50
2019-03-16T15:31:31.638Z,10.60
2019-03-16T15:34:05.278Z,6.60
2019-03-16T15:36:40.900Z,7.90
2019-03-16T15:39:14.566Z,5.93
2019-03-16T15:41:48.447Z,7.03
2019-03-16T15:44:22.933Z,8.60
2019-03-16T15:46:58.116Z,5.17
2019-03-16T15:49:32.976Z,8.37
2019-03-16T15:52:08.150Z,5.87
2019-03-16T15:54:42.104Z,7.43
2019-03-16T15:57:16.071Z,5.27
2019-03-16T15:59:51.461Z,6.53
2019-03-16T16:02:26.507Z,9.07
2019-03-16T16:05:00.391Z,6.83
2019-03-16T16:07:35.463Z,6.23
2019-03-16T16:10:10.235Z,5.07
2019-03-16T16:12:47.277Z,4.77
2019-03-16T16:15:21.278Z,6.67
2019-03-16T16:17:55.089Z,5.17
2019-03-16T16:20:29.144Z,7.10
2019-03-16T16:23:04.196Z,4.73
2019-03-16T16:25:40.098Z,4.33
2019-03-16T16:28:13.991Z,5.73
2019-03-16T16:30:49.346Z,3.53
2019-03-16T16:33:23.044Z,5.53
2019-03-16T16:36:00.745Z,4.20
2019-03-16T16:38:36.598Z,6.90
2019-03-16T16:41:10.517Z,2.97
2019-03-16T16:43:44.465Z,3.20
2019-03-16T16:46:18.895Z,3.10
2019-03-16T16:48:54.818Z,9.70
2019-03-16T16:51:28.591Z,3.20
2019-03-16T16:54:02.211Z,4.47
2019-03-16T16:56:39.000Z,4.87
2019-03-16T16:59:15.045Z,6.57
2019-03-16T17:01:49.634Z,3.83
2019-03-16T17:04:24.787Z,6.00
2019-03-16T17:06:58.466Z,3.30
2019-03-16T17:09:32.255Z,15.70
2019-03-16T17:12:06.092Z,7.40
2019-03-16T17:14:40.354Z,4.23
2019-03-16T17:17:14.102Z,5.57
2019-03-16T17:19:48.316Z,4.07
2019-03-16T17:22:22.013Z,4.30
2019-03-16T17:24:55.976Z,3.20
2019-03-16T17:27:30.064Z,2.80
2019-03-16T17:30:04.015Z,1.90
2019-03-16T17:32:39.565Z,2.67
2019-03-16T17:35:13.744Z,4.83
2019-03-16T17:37:47.435Z,7.90
2019-03-16T17:40:21.807Z,3.57
2019-03-16T17:42:56.154Z,3.30
2019-03-16T17:45:31.775Z,3.27
2019-03-16T17:48:06.733Z,1.77
2019-03-16T17:50:40.875Z,3.60
2019-03-16T17:53:16.373Z,2.40
2019-03-16T17:55:50.353Z,3.93
2019-03-16T17:58:24.281Z,3.83
2019-03-16T18:00:58.052Z,1.90
2019-03-16T18:03:31.704Z,9.70
2019-03-16T18:06:07.461Z,3.10
2019-03-16T18:08:41.123Z,3.77
2019-03-16T18:11:15.006Z,2.83
2019-03-16T18:13:48.788Z,3.33
2019-03-16T18:16:22.624Z,8.63
2019-03-16T18:18:56.346Z,4.60
2019-03-16T18:21:31.534Z,2.43
2019-03-16T18:24:07.699Z,4.43
2019-03-16T18:26:41.539Z,2.73
2019-03-16T18:29:15.450Z,7.57
2019-03-16T18:31:51.264Z,5.53
2019-03-16T18:34:27.760Z,2.30
2019-03-16T18:37:01.560Z,7.33
2019-03-16T18:39:35.489Z,3.00
2019-03-16T18:42:09.977Z,4.50
2019-03-16T18:44:44.168Z,1.83
2019-03-16T18:47:18.419Z,4.30
2019-03-16T18:49:52.624Z,2.87
2019-03-16T18:52:26.538Z,2.27
2019-03-16T18:55:00.824Z,2.50
2019-03-16T18:57:35.292Z,3.43
2019-03-16T19:00:10.535Z,2.27
2019-03-16T19:02:44.388Z,3.60
2019-03-16T19:05:18.598Z,2.57
2019-03-16T19:07:53.072Z,5.23
2019-03-16T19:10:29.581Z,3.40
2019-03-16T19:13:03.652Z,2.27
2019-03-16T19:15:37.656Z,5.17
2019-03-16T19:18:11.845Z,1.60
2019-03-16T19:20:45.744Z,2.53
2019-03-16T19:23:21.700Z,4.30
2019-03-16T19:25:55.643Z,1.70
2019-03-16T19:28:29.585Z,3.77
2019-03-16T19:31:03.379Z,5.10
2019-03-16T19:33:36.951Z,3.17
2019-03-16T19:36:10.828Z,4.33
2019-03-16T19:38:44.726Z,2.33
2019-03-16T19:41:18.610Z,4.60
2019-03-16T19:43:52.972Z,2.10
2019-03-16T19:46:28.764Z,5.87
2019-03-16T19:49:02.666Z,4.00
2019-03-16T19:51:37.876Z,4.73
2019-03-16T19:54:11.752Z,4.47
2019-03-16T19:56:45.833Z,4.93
2019-03-16T19:59:21.238Z,3.57
2019-03-16T20:01:56.073Z,5.90
2019-03-16T20:04:36.032Z,3.23
2019-03-16T20:07:18.428Z,5.23
2019-03-16T20:09:41.875Z,4.87
2019-03-16T20:12:16.012Z,4.87
2019-03-16T20:14:51.829Z,5.27
2019-03-16T20:17:28.833Z,3.73
2019-03-16T20:20:03.261Z,6.27
2019-03-16T20:22:38.391Z,3.27
2019-03-16T20:25:14.372Z,3.97
2019-03-16T20:27:50.188Z,8.63
2019-03-16T20:30:27.215Z,7.30
2019-03-16T20:33:04.311Z,6.93
2019-03-16T20:35:37.951Z,3.20
2019-03-16T20:38:13.914Z,3.20
2019-03-16T20:40:50.530Z,5.50
2019-03-16T20:43:24.651Z,3.53
2019-03-16T20:45:58.679Z,3.50
2019-03-16T20:48:33.024Z,1.70
2019-03-16T20:51:07.176Z,3.00
2019-03-16T20:53:42.110Z,3.20
2019-03-16T20:56:16.476Z,6.97
2019-03-16T20:58:51.190Z,4.77
2019-03-16T21:01:25.563Z,3.50
2019-03-16T21:03:59.761Z,7.30
2019-03-16T21:06:33.468Z,4.20
2019-03-16T21:09:09.565Z,5.83
2019-03-16T21:11:45.341Z,3.90
2019-03-16T21:14:19.488Z,4.23
2019-03-16T21:16:54.765Z,7.33
2019-03-16T21:19:28.483Z,2.50
2019-03-16T21:22:02.549Z,4.03
2019-03-16T21:24:41.381Z,6.03
2019-03-16T21:27:15.230Z,4.10
2019-03-16T21:29:49.403Z,3.70
2019-03-16T21:32:23.154Z,6.57
2019-03-16T21:34:57.073Z,5.73
2019-03-16T21:37:30.665Z,3.93
2019-03-16T21:40:06.042Z,2.67
2019-03-16T21:42:41.130Z,3.43
2019-03-16T21:45:16.228Z,4.90
2019-03-16T21:47:59.353Z,3.87
2019-03-16T21:50:25.135Z,3.00
2019-03-16T21:52:58.818Z,4.13
2019-03-16T21:55:32.406Z,3.67
2019-03-16T21:58:06.037Z,7.97
2019-03-16T22:00:39.704Z,8.23
2019-03-16T22:03:13.346Z,3.40
2019-03-16T22:05:46.944Z,4.47
2019-03-16T22:08:20.819Z,4.40
2019-03-16T22:10:55.147Z,4.00
2019-03-16T22:13:28.910Z,3.33
2019-03-16T22:16:04.629Z,4.87
2019-03-16T22:18:38.286Z,4.30
2019-03-16T22:21:13.057Z,3.93
2019-03-16T22:23:48.211Z,4.40
2019-03-16T22:26:22.054Z,5.47
2019-03-16T22:28:56.911Z,10.50
2019-03-16T22:31:31.064Z,7.30
2019-03-16T22:34:05.037Z,5.07
2019-03-16T22:36:39.969Z,5.23
2019-03-16T22:39:15.521Z,4.27
2019-03-16T22:41:49.606Z,6.37
2019-03-16T22:44:24.503Z,8.70
2019-03-16T22:46:58.229Z,11.70
2019-03-16T22:49:32.083Z,3.93
2019-03-16T22:52:07.048Z,5.50
2019-03-16T22:54:40.914Z,9.33
2019-03-16T22:57:15.775Z,4.63
2019-03-16T22:59:49.460Z,8.40
2019-03-16T23:02:23.193Z,3.90
2019-03-16T23:04:58.252Z,6.87
2019-03-16T23:07:33.894Z,8.93
2019-03-16T23:10:09.433Z,3.53
2019-03-16T23:12:43.616Z,2.87
2019-03-16T23:15:17.669Z,8.43
2019-03-16T23:17:52.996Z,3.90
2019-03-16T23:20:26.883Z,4.10
2019-03-16T23:23:01.194Z,3.30
2019-03-16T23:25:34.918Z,6.57
2019-03-16T23:28:09.073Z,5.10
2019-03-16T23:30:43.764Z,6.83
2019-03-16T23:33:20.343Z,6.13
2019-03-16T23:35:54.790Z,4.67
2019-03-16T23:38:28.605Z,5.90
2019-03-16T23:41:02.255Z,3.63
2019-03-16T23:43:36.219Z,5.27
2019-03-16T23:46:11.715Z,6.43
2019-03-16T23:48:45.321Z,7.13
2019-03-16T23:51:21.069Z,7.20
2019-03-16T23:53:56.617Z,10.20
2019-03-16T23:56:31.482Z,4.13
2019-03-16T23:59:05.083Z,4.67
